sensor_id;sensor_type;location;lat;lon;timestamp;temperature;humidity
27128;DHT22;14660;49.008;8.390;2022-11-09T00:01:04;14.10;99.90
27128;DHT22;14660;49.008;8.390;2022-11-09T00:03:32;14.10;99.90
27128;DHT22;14660;49.008;8.390;2022-11-09T00:06:01;14.00;99.90
27128;DHT22;14660;49.008;8.390;2022-11-09T00:08:28;14.10;99.90
27128;DHT22;14660;49.008;8.390;2022-11-09T00:11:05;13.90;99.90
27128;DHT22;14660;49.008;8.390;2022-11-09T00:13:37;13.80;99.90
27128;DHT22;14660;49.008;8.390;2022-11-09T00:16:06;13.70;99.90
27128;DHT22;14660;49.008;8.390;2022-11-09T00:18:37;13.70;99.90
27128;DHT22;14660;49.008;8.390;2022-11-09T00:21:16;13.80;99.90
27128;DHT22;14660;49.008;8.390;2022-11-09T00:23:43;13.70;99.90
27128;DHT22;14660;49.008;8.390;2022-11-09T00:26:12;13.70;99.90
27128;DHT22;14660;49.008;8.390;2022-11-09T00:28:41;13.80;99.90
27128;DHT22;14660;49.008;8.390;2022-11-09T00:31:14;13.70;99.90
27128;DHT22;14660;49.008;8.390;2022-11-09T00:33:41;13.60;99.90
27128;DHT22;14660;49.008;8.390;2022-11-09T00:36:11;13.60;99.90
27128;DHT22;14660;49.008;8.390;2022-11-09T00:38:38;13.50;99.90
27128;DHT22;14660;49.008;8.390;2022-11-09T00:41:09;13.50;99.90
27128;DHT22;14660;49.008;8.390;2022-11-09T00:43:36;13.50;99.90
27128;DHT22;14660;49.008;8.390;2022-11-09T00:46:04;13.50;99.90
27128;DHT22;14660;49.008;8.390;2022-11-09T00:48:33;13.50;99.90
27128;DHT22;14660;49.008;8.390;2022-11-09T00:51:10;13.50;99.90
27128;DHT22;14660;49.008;8.390;2022-11-09T00:53:37;13.60;99.90
27128;DHT22;14660;49.008;8.390;2022-11-09T00:56:24;13.60;99.90
27128;DHT22;14660;49.008;8.390;2022-11-09T00:58:53;13.60;99.90
27128;DHT22;14660;49.008;8.390;2022-11-09T01:01:21;13.70;99.90
27128;DHT22;14660;49.008;8.390;2022-11-09T01:03:48;13.50;99.90
27128;DHT22;14660;49.008;8.390;2022-11-09T01:06:20;13.50;99.90
27128;DHT22;14660;49.008;8.390;2022-11-09T01:08:47;13.60;99.90
27128;DHT22;14660;49.008;8.390;2022-11-09T01:11:19;13.60;99.90
27128;DHT22;14660;49.008;8.390;2022-11-09T01:13:46;13.60;99.90
27128;DHT22;14660;49.008;8.390;2022-11-09T01:16:16;13.60;99.90
27128;DHT22;14660;49.008;8.390;2022-11-09T01:18:43;13.50;99.90
27128;DHT22;14660;49.008;8.390;2022-11-09T01:21:12;13.30;99.90
27128;DHT22;14660;49.008;8.390;2022-11-09T01:23:43;13.40;99.90
27128;DHT22;14660;49.008;8.390;2022-11-09T01:26:12;13.30;99.90
27128;DHT22;14660;49.008;8.390;2022-11-09T01:28:39;13.30;99.90
27128;DHT22;14660;49.008;8.390;2022-11-09T01:31:10;13.30;99.90
27128;DHT22;14660;49.008;8.390;2022-11-09T01:33:37;13.30;99.90
27128;DHT22;14660;49.008;8.390;2022-11-09T01:36:15;13.30;99.90
27128;DHT22;14660;49.008;8.390;2022-11-09T01:38:45;13.40;99.90
27128;DHT22;14660;49.008;8.390;2022-11-09T01:41:16;13.40;99.90
27128;DHT22;14660;49.008;8.390;2022-11-09T01:44:00;13.50;99.90
27128;DHT22;14660;49.008;8.390;2022-11-09T01:49:07;13.60;99.90
27128;DHT22;14660;49.008;8.390;2022-11-09T01:51:52;13.50;99.90
27128;DHT22;14660;49.008;8.390;2022-11-09T01:54:24;13.50;99.90
27128;DHT22;14660;49.008;8.390;2022-11-09T01:56:57;13.40;99.90
27128;DHT22;14660;49.008;8.390;2022-11-09T01:59:29;13.40;99.90
27128;DHT22;14660;49.008;8.390;2022-11-09T02:02:02;13.40;99.90
27128;DHT22;14660;49.008;8.390;2022-11-09T02:04:37;13.30;99.90
27128;DHT22;14660;49.008;8.390;2022-11-09T02:07:05;13.30;99.90
27128;DHT22;14660;49.008;8.390;2022-11-09T02:09:53;13.20;99.90
27128;DHT22;14660;49.008;8.390;2022-11-09T02:12:22;13.30;99.90
27128;DHT22;14660;49.008;8.390;2022-11-09T02:14:51;13.20;99.90
27128;DHT22;14660;49.008;8.390;2022-11-09T02:17:18;13.20;99.90
27128;DHT22;14660;49.008;8.390;2022-11-09T02:19:45;13.20;99.90
27128;DHT22;14660;49.008;8.390;2022-11-09T02:22:13;13.20;99.90
27128;DHT22;14660;49.008;8.390;2022-11-09T02:24:41;13.20;99.90
27128;DHT22;14660;49.008;8.390;2022-11-09T02:27:09;13.20;99.90
27128;DHT22;14660;49.008;8.390;2022-11-09T02:29:40;13.20;99.90
27128;DHT22;14660;49.008;8.390;2022-11-09T02:32:16;13.10;99.90
27128;DHT22;14660;49.008;8.390;2022-11-09T02:34:45;13.20;99.90
27128;DHT22;14660;49.008;8.390;2022-11-09T02:37:12;13.20;99.90
27128;DHT22;14660;49.008;8.390;2022-11-09T02:39:40;13.10;99.90
27128;DHT22;14660;49.008;8.390;2022-11-09T02:42:14;13.10;99.90
27128;DHT22;14660;49.008;8.390;2022-11-09T02:44:47;13.10;99.90
27128;DHT22;14660;49.008;8.390;2022-11-09T02:47:15;13.20;99.90
27128;DHT22;14660;49.008;8.390;2022-11-09T02:49:43;13.20;99.90
27128;DHT22;14660;49.008;8.390;2022-11-09T02:52:10;13.20;99.90
27128;DHT22;14660;49.008;8.390;2022-11-09T02:54:44;13.20;99.90
27128;DHT22;14660;49.008;8.390;2022-11-09T02:57:11;13.20;99.90
27128;DHT22;14660;49.008;8.390;2022-11-09T02:59:39;13.20;99.90
27128;DHT22;14660;49.008;8.390;2022-11-09T03:02:04;13.20;99.90
27128;DHT22;14660;49.008;8.390;2022-11-09T03:04:31;13.10;99.90
27128;DHT22;14660;49.008;8.390;2022-11-09T03:06:58;13.20;99.90
27128;DHT22;14660;49.008;8.390;2022-11-09T03:09:28;13.10;99.90
27128;DHT22;14660;49.008;8.390;2022-11-09T03:11:56;13.10;99.90
27128;DHT22;14660;49.008;8.390;2022-11-09T03:14:23;13.20;99.90
27128;DHT22;14660;49.008;8.390;2022-11-09T03:16:50;13.20;99.90
27128;DHT22;14660;49.008;8.390;2022-11-09T03:19:18;13.20;99.90
27128;DHT22;14660;49.008;8.390;2022-11-09T03:21:53;13.20;99.90
27128;DHT22;14660;49.008;8.390;2022-11-09T03:24:21;13.20;99.90
27128;DHT22;14660;49.008;8.390;2022-11-09T03:26:50;13.20;99.90
27128;DHT22;14660;49.008;8.390;2022-11-09T03:29:16;13.30;99.90
27128;DHT22;14660;49.008;8.390;2022-11-09T03:31:43;13.30;99.90
27128;DHT22;14660;49.008;8.390;2022-11-09T03:34:10;13.40;99.90
27128;DHT22;14660;49.008;8.390;2022-11-09T03:36:38;13.40;99.90
27128;DHT22;14660;49.008;8.390;2022-11-09T03:39:04;13.40;99.90
27128;DHT22;14660;49.008;8.390;2022-11-09T03:41:31;13.40;99.90
27128;DHT22;14660;49.008;8.390;2022-11-09T03:43:57;13.40;99.90
27128;DHT22;14660;49.008;8.390;2022-11-09T03:46:25;13.50;99.90
27128;DHT22;14660;49.008;8.390;2022-11-09T03:48:54;13.50;99.90
27128;DHT22;14660;49.008;8.390;2022-11-09T03:51:21;13.60;99.90
27128;DHT22;14660;49.008;8.390;2022-11-09T03:53:48;13.60;99.90
27128;DHT22;14660;49.008;8.390;2022-11-09T03:56:14;13.60;99.90
27128;DHT22;14660;49.008;8.390;2022-11-09T03:58:41;13.60;99.90
27128;DHT22;14660;49.008;8.390;2022-11-09T04:01:07;13.60;99.90
27128;DHT22;14660;49.008;8.390;2022-11-09T04:03:34;13.60;99.90
27128;DHT22;14660;49.008;8.390;2022-11-09T04:06:00;13.60;99.90
27128;DHT22;14660;49.008;8.390;2022-11-09T04:08:28;13.50;99.90
27128;DHT22;14660;49.008;8.390;2022-11-09T04:10:55;13.60;99.90
27128;DHT22;14660;49.008;8.390;2022-11-09T04:13:23;13.50;99.90
27128;DHT22;14660;49.008;8.390;2022-11-09T04:15:50;13.40;99.90
27128;DHT22;14660;49.008;8.390;2022-11-09T04:18:18;13.30;99.90
27128;DHT22;14660;49.008;8.390;2022-11-09T04:20:45;13.30;99.90
27128;DHT22;14660;49.008;8.390;2022-11-09T04:23:12;13.30;99.90
27128;DHT22;14660;49.008;8.390;2022-11-09T04:25:43;13.30;99.90
27128;DHT22;14660;49.008;8.390;2022-11-09T04:28:11;13.40;99.90
27128;DHT22;14660;49.008;8.390;2022-11-09T04:30:38;13.40;99.90
27128;DHT22;14660;49.008;8.390;2022-11-09T04:33:05;13.50;99.90
27128;DHT22;14660;49.008;8.390;2022-11-09T04:35:32;13.50;99.90
27128;DHT22;14660;49.008;8.390;2022-11-09T04:38:18;13.50;99.90
27128;DHT22;14660;49.008;8.390;2022-11-09T04:40:46;13.50;99.90
27128;DHT22;14660;49.008;8.390;2022-11-09T04:43:13;13.50;99.90
27128;DHT22;14660;49.008;8.390;2022-11-09T04:45:41;13.50;99.90
27128;DHT22;14660;49.008;8.390;2022-11-09T04:48:09;13.50;99.90
27128;DHT22;14660;49.008;8.390;2022-11-09T04:50:37;13.60;99.90
27128;DHT22;14660;49.008;8.390;2022-11-09T04:53:11;13.50;99.90
27128;DHT22;14660;49.008;8.390;2022-11-09T04:55:39;13.50;99.90
27128;DHT22;14660;49.008;8.390;2022-11-09T04:58:09;13.60;99.90
27128;DHT22;14660;49.008;8.390;2022-11-09T05:00:37;13.50;99.90
27128;DHT22;14660;49.008;8.390;2022-11-09T05:03:16;13.50;99.90
27128;DHT22;14660;49.008;8.390;2022-11-09T05:05:44;13.50;99.90
27128;DHT22;14660;49.008;8.390;2022-11-09T05:08:20;13.50;99.90
27128;DHT22;14660;49.008;8.390;2022-11-09T05:10:47;13.60;99.90
27128;DHT22;14660;49.008;8.390;2022-11-09T05:13:14;13.60;99.90
27128;DHT22;14660;49.008;8.390;2022-11-09T05:15:41;13.60;99.90
27128;DHT22;14660;49.008;8.390;2022-11-09T05:18:08;13.50;99.90
27128;DHT22;14660;49.008;8.390;2022-11-09T05:20:36;13.40;99.90
27128;DHT22;14660;49.008;8.390;2022-11-09T05:23:03;13.50;99.90
27128;DHT22;14660;49.008;8.390;2022-11-09T05:25:49;13.50;99.90
27128;DHT22;14660;49.008;8.390;2022-11-09T05:28:25;13.60;99.90
27128;DHT22;14660;49.008;8.390;2022-11-09T05:30:50;13.60;99.90
27128;DHT22;14660;49.008;8.390;2022-11-09T05:33:17;13.60;99.90
27128;DHT22;14660;49.008;8.390;2022-11-09T05:35:45;13.70;99.90
27128;DHT22;14660;49.008;8.390;2022-11-09T05:38:12;13.70;99.90
27128;DHT22;14660;49.008;8.390;2022-11-09T05:40:40;13.80;99.90
27128;DHT22;14660;49.008;8.390;2022-11-09T05:43:06;13.70;99.90
27128;DHT22;14660;49.008;8.390;2022-11-09T05:45:33;13.80;99.90
27128;DHT22;14660;49.008;8.390;2022-11-09T05:48:03;13.70;99.90
27128;DHT22;14660;49.008;8.390;2022-11-09T05:50:30;13.70;99.90
27128;DHT22;14660;49.008;8.390;2022-11-09T05:52:58;13.70;99.90
27128;DHT22;14660;49.008;8.390;2022-11-09T05:55:28;13.70;99.90
27128;DHT22;14660;49.008;8.390;2022-11-09T05:57:57;13.70;99.90
27128;DHT22;14660;49.008;8.390;2022-11-09T06:00:22;13.70;99.90
27128;DHT22;14660;49.008;8.390;2022-11-09T06:02:52;13.60;99.90
27128;DHT22;14660;49.008;8.390;2022-11-09T06:05:20;13.60;99.90
27128;DHT22;14660;49.008;8.390;2022-11-09T06:07:51;13.60;99.90
27128;DHT22;14660;49.008;8.390;2022-11-09T06:10:19;13.60;99.90
27128;DHT22;14660;49.008;8.390;2022-11-09T06:12:58;13.60;99.90
27128;DHT22;14660;49.008;8.390;2022-11-09T06:15:29;13.70;99.90
27128;DHT22;14660;49.008;8.390;2022-11-09T06:17:57;13.60;99.90
27128;DHT22;14660;49.008;8.390;2022-11-09T06:20:25;13.60;99.90
27128;DHT22;14660;49.008;8.390;2022-11-09T06:22:58;13.60;99.90
27128;DHT22;14660;49.008;8.390;2022-11-09T06:25:27;13.50;99.90
27128;DHT22;14660;49.008;8.390;2022-11-09T06:27:57;13.40;99.90
27128;DHT22;14660;49.008;8.390;2022-11-09T06:30:24;13.40;99.90
27128;DHT22;14660;49.008;8.390;2022-11-09T06:32:49;13.40;99.90
27128;DHT22;14660;49.008;8.390;2022-11-09T06:35:16;13.40;99.90
27128;DHT22;14660;49.008;8.390;2022-11-09T06:37:44;13.40;99.90
27128;DHT22;14660;49.008;8.390;2022-11-09T06:40:13;13.30;99.90
27128;DHT22;14660;49.008;8.390;2022-11-09T06:42:40;13.30;99.90
27128;DHT22;14660;49.008;8.390;2022-11-09T06:45:10;13.40;99.90
27128;DHT22;14660;49.008;8.390;2022-11-09T06:47:36;13.40;99.90
27128;DHT22;14660;49.008;8.390;2022-11-09T06:50:04;13.40;99.90
27128;DHT22;14660;49.008;8.390;2022-11-09T06:52:32;13.30;99.90
27128;DHT22;14660;49.008;8.390;2022-11-09T06:55:00;13.30;99.90
27128;DHT22;14660;49.008;8.390;2022-11-09T06:57:29;13.30;99.90
27128;DHT22;14660;49.008;8.390;2022-11-09T06:59:56;13.30;99.90
27128;DHT22;14660;49.008;8.390;2022-11-09T07:02:24;13.30;99.90
27128;DHT22;14660;49.008;8.390;2022-11-09T07:04:51;13.20;99.90
27128;DHT22;14660;49.008;8.390;2022-11-09T07:07:19;13.30;99.90
27128;DHT22;14660;49.008;8.390;2022-11-09T07:09:46;13.30;99.90
27128;DHT22;14660;49.008;8.390;2022-11-09T07:12:12;13.30;99.90
27128;DHT22;14660;49.008;8.390;2022-11-09T07:14:39;13.20;99.90
27128;DHT22;14660;49.008;8.390;2022-11-09T07:17:06;13.30;99.90
27128;DHT22;14660;49.008;8.390;2022-11-09T07:19:33;13.30;99.90
27128;DHT22;14660;49.008;8.390;2022-11-09T07:22:00;13.30;99.90
27128;DHT22;14660;49.008;8.390;2022-11-09T07:24:25;13.30;99.90
27128;DHT22;14660;49.008;8.390;2022-11-09T07:26:51;13.30;99.90
27128;DHT22;14660;49.008;8.390;2022-11-09T07:29:17;13.30;99.90
27128;DHT22;14660;49.008;8.390;2022-11-09T07:31:44;13.40;99.90
27128;DHT22;14660;49.008;8.390;2022-11-09T07:34:12;13.40;99.90
27128;DHT22;14660;49.008;8.390;2022-11-09T07:36:41;13.40;99.90
27128;DHT22;14660;49.008;8.390;2022-11-09T07:39:08;13.50;99.90
27128;DHT22;14660;49.008;8.390;2022-11-09T07:41:36;13.50;99.90
27128;DHT22;14660;49.008;8.390;2022-11-09T07:44:04;13.60;99.90
27128;DHT22;14660;49.008;8.390;2022-11-09T07:46:47;13.60;99.90
27128;DHT22;14660;49.008;8.390;2022-11-09T07:49:15;13.60;99.90
27128;DHT22;14660;49.008;8.390;2022-11-09T07:51:41;13.60;99.90
27128;DHT22;14660;49.008;8.390;2022-11-09T07:54:10;13.60;99.90
27128;DHT22;14660;49.008;8.390;2022-11-09T07:56:52;13.70;99.90
27128;DHT22;14660;49.008;8.390;2022-11-09T07:59:20;13.80;99.90
27128;DHT22;14660;49.008;8.390;2022-11-09T08:01:47;13.80;99.90
27128;DHT22;14660;49.008;8.390;2022-11-09T08:04:21;13.80;99.90
27128;DHT22;14660;49.008;8.390;2022-11-09T08:06:50;13.80;99.90
27128;DHT22;14660;49.008;8.390;2022-11-09T08:09:17;13.90;99.90
27128;DHT22;14660;49.008;8.390;2022-11-09T08:11:44;14.00;99.90
27128;DHT22;14660;49.008;8.390;2022-11-09T08:14:11;14.10;99.90
27128;DHT22;14660;49.008;8.390;2022-11-09T08:16:38;14.30;99.90
27128;DHT22;14660;49.008;8.390;2022-11-09T08:19:05;14.30;99.90
27128;DHT22;14660;49.008;8.390;2022-11-09T08:21:44;14.30;99.90
27128;DHT22;14660;49.008;8.390;2022-11-09T08:24:11;14.40;99.90
27128;DHT22;14660;49.008;8.390;2022-11-09T08:26:38;14.40;99.90
27128;DHT22;14660;49.008;8.390;2022-11-09T08:29:06;14.50;99.90
27128;DHT22;14660;49.008;8.390;2022-11-09T08:31:33;14.50;99.90
27128;DHT22;14660;49.008;8.390;2022-11-09T08:34:00;14.50;99.90
27128;DHT22;14660;49.008;8.390;2022-11-09T08:36:26;14.50;99.90
27128;DHT22;14660;49.008;8.390;2022-11-09T08:38:55;14.50;99.90
27128;DHT22;14660;49.008;8.390;2022-11-09T08:41:25;14.60;99.90
27128;DHT22;14660;49.008;8.390;2022-11-09T08:43:53;14.70;99.90
27128;DHT22;14660;49.008;8.390;2022-11-09T08:46:22;14.80;99.90
27128;DHT22;14660;49.008;8.390;2022-11-09T08:48:52;14.80;99.90
27128;DHT22;14660;49.008;8.390;2022-11-09T08:51:30;14.90;99.90
27128;DHT22;14660;49.008;8.390;2022-11-09T08:54:04;14.90;99.90
27128;DHT22;14660;49.008;8.390;2022-11-09T08:56:31;14.90;99.90
27128;DHT22;14660;49.008;8.390;2022-11-09T08:58:58;14.90;99.90
27128;DHT22;14660;49.008;8.390;2022-11-09T09:01:32;14.90;99.90
27128;DHT22;14660;49.008;8.390;2022-11-09T09:03:59;15.00;99.90
27128;DHT22;14660;49.008;8.390;2022-11-09T09:06:27;15.00;99.90
27128;DHT22;14660;49.008;8.390;2022-11-09T09:08:55;14.90;99.90
27128;DHT22;14660;49.008;8.390;2022-11-09T09:11:22;15.00;99.90
27128;DHT22;14660;49.008;8.390;2022-11-09T09:13:48;14.90;99.90
27128;DHT22;14660;49.008;8.390;2022-11-09T09:16:17;15.00;99.90
27128;DHT22;14660;49.008;8.390;2022-11-09T09:18:46;15.00;99.90
27128;DHT22;14660;49.008;8.390;2022-11-09T09:21:14;15.00;99.90
27128;DHT22;14660;49.008;8.390;2022-11-09T09:23:41;15.10;99.90
27128;DHT22;14660;49.008;8.390;2022-11-09T09:26:10;15.20;99.90
27128;DHT22;14660;49.008;8.390;2022-11-09T09:28:38;15.20;99.90
27128;DHT22;14660;49.008;8.390;2022-11-09T09:31:05;15.30;99.90
27128;DHT22;14660;49.008;8.390;2022-11-09T09:33:32;15.30;99.90
27128;DHT22;14660;49.008;8.390;2022-11-09T09:35:59;15.30;99.90
27128;DHT22;14660;49.008;8.390;2022-11-09T09:38:27;15.40;99.90
27128;DHT22;14660;49.008;8.390;2022-11-09T09:41:16;15.40;99.90
27128;DHT22;14660;49.008;8.390;2022-11-09T09:43:50;15.40;99.90
27128;DHT22;14660;49.008;8.390;2022-11-09T09:46:39;15.30;99.90
27128;DHT22;14660;49.008;8.390;2022-11-09T09:49:19;15.40;99.90
27128;DHT22;14660;49.008;8.390;2022-11-09T09:52:04;15.40;99.90
27128;DHT22;14660;49.008;8.390;2022-11-09T09:54:35;15.40;99.90
27128;DHT22;14660;49.008;8.390;2022-11-09T09:57:21;15.40;99.90
27128;DHT22;14660;49.008;8.390;2022-11-09T09:59:50;15.40;99.90
27128;DHT22;14660;49.008;8.390;2022-11-09T10:02:36;15.30;99.90
27128;DHT22;14660;49.008;8.390;2022-11-09T10:05:14;15.40;99.90
27128;DHT22;14660;49.008;8.390;2022-11-09T10:11:50;15.50;99.90
27128;DHT22;14660;49.008;8.390;2022-11-09T10:25:49;15.70;99.90
27128;DHT22;14660;49.008;8.390;2022-11-09T10:28:23;15.80;99.90
27128;DHT22;14660;49.008;8.390;2022-11-09T10:30:53;15.80;99.90
27128;DHT22;14660;49.008;8.390;2022-11-09T10:33:22;15.90;99.90
27128;DHT22;14660;49.008;8.390;2022-11-09T10:38:43;16.00;99.90
27128;DHT22;14660;49.008;8.390;2022-11-09T10:44:15;16.00;99.90
27128;DHT22;14660;49.008;8.390;2022-11-09T10:47:01;16.10;99.90
27128;DHT22;14660;49.008;8.390;2022-11-09T10:49:29;16.10;99.90
27128;DHT22;14660;49.008;8.390;2022-11-09T10:51:55;16.10;99.90
27128;DHT22;14660;49.008;8.390;2022-11-09T10:54:37;16.20;99.90
27128;DHT22;14660;49.008;8.390;2022-11-09T10:57:17;16.10;99.90
27128;DHT22;14660;49.008;8.390;2022-11-09T11:00:03;16.10;99.90
27128;DHT22;14660;49.008;8.390;2022-11-09T11:02:43;16.20;99.90
27128;DHT22;14660;49.008;8.390;2022-11-09T11:05:29;16.10;99.90
27128;DHT22;14660;49.008;8.390;2022-11-09T11:08:02;16.10;99.90
27128;DHT22;14660;49.008;8.390;2022-11-09T11:10:36;16.10;99.90
27128;DHT22;14660;49.008;8.390;2022-11-09T11:13:22;16.20;99.90
27128;DHT22;14660;49.008;8.390;2022-11-09T11:15:49;16.20;99.90
27128;DHT22;14660;49.008;8.390;2022-11-09T11:18:26;16.40;99.90
27128;DHT22;14660;49.008;8.390;2022-11-09T11:24:16;16.40;99.90
27128;DHT22;14660;49.008;8.390;2022-11-09T11:26:58;16.50;99.90
27128;DHT22;14660;49.008;8.390;2022-11-09T11:32:32;16.50;99.90
27128;DHT22;14660;49.008;8.390;2022-11-09T11:34:59;16.50;99.90
27128;DHT22;14660;49.008;8.390;2022-11-09T11:40:44;16.50;99.90
27128;DHT22;14660;49.008;8.390;2022-11-09T11:46:52;16.60;99.90
27128;DHT22;14660;49.008;8.390;2022-11-09T12:17:21;16.60;99.90
27128;DHT22;14660;49.008;8.390;2022-11-09T12:29:22;16.50;99.90
27128;DHT22;14660;49.008;8.390;2022-11-09T12:40:55;16.40;99.90
27128;DHT22;14660;49.008;8.390;2022-11-09T12:46:16;16.30;99.90
27128;DHT22;14660;49.008;8.390;2022-11-09T12:48:44;16.40;99.90
27128;DHT22;14660;49.008;8.390;2022-11-09T12:51:15;16.30;99.90
27128;DHT22;14660;49.008;8.390;2022-11-09T12:53:48;16.40;99.90
27128;DHT22;14660;49.008;8.390;2022-11-09T12:56:34;16.40;99.90
27128;DHT22;14660;49.008;8.390;2022-11-09T12:59:20;16.40;99.90
27128;DHT22;14660;49.008;8.390;2022-11-09T13:01:56;16.50;99.90
27128;DHT22;14660;49.008;8.390;2022-11-09T13:04:24;16.40;99.90
27128;DHT22;14660;49.008;8.390;2022-11-09T13:09:56;16.40;99.90
27128;DHT22;14660;49.008;8.390;2022-11-09T13:15:34;16.30;99.90
27128;DHT22;14660;49.008;8.390;2022-11-09T13:20:51;16.20;99.90
27128;DHT22;14660;49.008;8.390;2022-11-09T13:23:34;16.20;99.90
27128;DHT22;14660;49.008;8.390;2022-11-09T13:26:03;16.20;99.90
27128;DHT22;14660;49.008;8.390;2022-11-09T13:34:48;16.30;99.90
27128;DHT22;14660;49.008;8.390;2022-11-09T13:43:29;16.10;99.90
27128;DHT22;14660;49.008;8.390;2022-11-09T13:49:00;16.10;99.90
27128;DHT22;14660;49.008;8.390;2022-11-09T13:51:45;16.10;99.90
27128;DHT22;14660;49.008;8.390;2022-11-09T13:54:35;16.10;99.90
27128;DHT22;14660;49.008;8.390;2022-11-09T13:57:14;16.10;99.90
27128;DHT22;14660;49.008;8.390;2022-11-09T13:59:48;16.10;99.90
27128;DHT22;14660;49.008;8.390;2022-11-09T14:02:22;16.10;99.90
27128;DHT22;14660;49.008;8.390;2022-11-09T14:04:49;16.00;99.90
27128;DHT22;14660;49.008;8.390;2022-11-09T14:07:35;15.90;99.90
27128;DHT22;14660;49.008;8.390;2022-11-09T14:16:32;15.80;99.90
27128;DHT22;14660;49.008;8.390;2022-11-09T14:19:34;15.80;99.90
27128;DHT22;14660;49.008;8.390;2022-11-09T14:22:17;15.80;99.90
27128;DHT22;14660;49.008;8.390;2022-11-09T14:24:45;15.70;99.90
27128;DHT22;14660;49.008;8.390;2022-11-09T14:27:31;15.70;99.90
27128;DHT22;14660;49.008;8.390;2022-11-09T14:30:12;15.70;99.90
27128;DHT22;14660;49.008;8.390;2022-11-09T14:32:48;15.70;99.90
27128;DHT22;14660;49.008;8.390;2022-11-09T14:35:34;15.70;99.90
27128;DHT22;14660;49.008;8.390;2022-11-09T14:38:17;15.70;99.90
27128;DHT22;14660;49.008;8.390;2022-11-09T14:40:47;15.60;99.90
27128;DHT22;14660;49.008;8.390;2022-11-09T14:43:22;15.50;99.90
27128;DHT22;14660;49.008;8.390;2022-11-09T14:45:53;15.50;99.90
27128;DHT22;14660;49.008;8.390;2022-11-09T14:48:22;15.40;99.90
27128;DHT22;14660;49.008;8.390;2022-11-09T14:51:00;15.40;99.90
27128;DHT22;14660;49.008;8.390;2022-11-09T14:53:41;15.40;99.90
27128;DHT22;14660;49.008;8.390;2022-11-09T14:56:11;15.40;99.90
27128;DHT22;14660;49.008;8.390;2022-11-09T14:58:41;15.50;99.90
27128;DHT22;14660;49.008;8.390;2022-11-09T15:01:32;15.40;99.90
27128;DHT22;14660;49.008;8.390;2022-11-09T15:04:19;15.40;99.90
27128;DHT22;14660;49.008;8.390;2022-11-09T15:07:05;15.40;99.90
27128;DHT22;14660;49.008;8.390;2022-11-09T15:09:43;15.30;99.90
27128;DHT22;14660;49.008;8.390;2022-11-09T15:12:20;15.40;99.90
27128;DHT22;14660;49.008;8.390;2022-11-09T15:14:58;15.40;99.90
27128;DHT22;14660;49.008;8.390;2022-11-09T15:17:47;15.30;99.90
27128;DHT22;14660;49.008;8.390;2022-11-09T15:20:32;15.30;99.90
27128;DHT22;14660;49.008;8.390;2022-11-09T15:23:04;15.20;99.90
27128;DHT22;14660;49.008;8.390;2022-11-09T15:28:48;15.10;99.90
27128;DHT22;14660;49.008;8.390;2022-11-09T15:31:17;15.00;99.90
27128;DHT22;14660;49.008;8.390;2022-11-09T15:34:01;15.10;99.90
27128;DHT22;14660;49.008;8.390;2022-11-09T15:36:31;15.00;99.90
27128;DHT22;14660;49.008;8.390;2022-11-09T15:39:18;15.00;99.90
27128;DHT22;14660;49.008;8.390;2022-11-09T15:41:45;15.00;99.90
27128;DHT22;14660;49.008;8.390;2022-11-09T15:44:15;15.00;99.90
27128;DHT22;14660;49.008;8.390;2022-11-09T15:46:49;15.00;99.90
27128;DHT22;14660;49.008;8.390;2022-11-09T15:49:36;15.00;99.90
27128;DHT22;14660;49.008;8.390;2022-11-09T15:52:03;15.00;99.90
27128;DHT22;14660;49.008;8.390;2022-11-09T15:54:29;14.90;99.90
27128;DHT22;14660;49.008;8.390;2022-11-09T15:56:59;14.80;99.90
27128;DHT22;14660;49.008;8.390;2022-11-09T15:59:27;14.80;99.90
27128;DHT22;14660;49.008;8.390;2022-11-09T16:01:54;14.70;99.90
27128;DHT22;14660;49.008;8.390;2022-11-09T16:04:21;14.90;99.90
27128;DHT22;14660;49.008;8.390;2022-11-09T16:06:51;14.80;99.90
27128;DHT22;14660;49.008;8.390;2022-11-09T16:09:19;14.80;99.90
27128;DHT22;14660;49.008;8.390;2022-11-09T16:11:53;14.70;99.90
27128;DHT22;14660;49.008;8.390;2022-11-09T16:14:20;14.70;99.90
27128;DHT22;14660;49.008;8.390;2022-11-09T16:16:49;14.70;99.90
27128;DHT22;14660;49.008;8.390;2022-11-09T16:19:20;14.60;99.90
27128;DHT22;14660;49.008;8.390;2022-11-09T16:21:50;14.70;99.90
27128;DHT22;14660;49.008;8.390;2022-11-09T16:24:17;14.60;99.90
27128;DHT22;14660;49.008;8.390;2022-11-09T16:26:45;14.70;99.90
27128;DHT22;14660;49.008;8.390;2022-11-09T16:29:11;14.60;99.90
27128;DHT22;14660;49.008;8.390;2022-11-09T16:31:38;14.60;99.90
27128;DHT22;14660;49.008;8.390;2022-11-09T16:34:05;14.60;99.90
27128;DHT22;14660;49.008;8.390;2022-11-09T16:36:33;14.60;99.90
27128;DHT22;14660;49.008;8.390;2022-11-09T16:39:04;14.60;99.90
27128;DHT22;14660;49.008;8.390;2022-11-09T16:41:32;14.60;99.90
27128;DHT22;14660;49.008;8.390;2022-11-09T16:43:57;14.70;99.90
27128;DHT22;14660;49.008;8.390;2022-11-09T16:46:27;14.70;99.90
27128;DHT22;14660;49.008;8.390;2022-11-09T16:48:55;14.60;99.90
27128;DHT22;14660;49.008;8.390;2022-11-09T16:51:26;14.50;99.90
27128;DHT22;14660;49.008;8.390;2022-11-09T16:53:53;14.60;99.90
27128;DHT22;14660;49.008;8.390;2022-11-09T16:56:21;14.60;99.90
27128;DHT22;14660;49.008;8.390;2022-11-09T16:58:48;14.50;99.90
27128;DHT22;14660;49.008;8.390;2022-11-09T17:01:15;14.50;99.90
27128;DHT22;14660;49.008;8.390;2022-11-09T17:03:42;14.60;99.90
27128;DHT22;14660;49.008;8.390;2022-11-09T17:06:09;14.70;99.90
27128;DHT22;14660;49.008;8.390;2022-11-09T17:08:40;14.70;99.90
27128;DHT22;14660;49.008;8.390;2022-11-09T17:11:12;14.60;99.90
27128;DHT22;14660;49.008;8.390;2022-11-09T17:13:42;14.60;99.90
27128;DHT22;14660;49.008;8.390;2022-11-09T17:16:12;14.60;99.90
27128;DHT22;14660;49.008;8.390;2022-11-09T17:18:39;14.60;99.90
27128;DHT22;14660;49.008;8.390;2022-11-09T17:21:13;14.60;99.90
27128;DHT22;14660;49.008;8.390;2022-11-09T17:23:46;14.60;99.90
27128;DHT22;14660;49.008;8.390;2022-11-09T17:26:18;14.70;99.90
27128;DHT22;14660;49.008;8.390;2022-11-09T17:28:45;14.60;99.90
27128;DHT22;14660;49.008;8.390;2022-11-09T17:31:22;14.60;99.90
27128;DHT22;14660;49.008;8.390;2022-11-09T17:33:50;14.60;99.90
27128;DHT22;14660;49.008;8.390;2022-11-09T17:36:17;14.60;99.90
27128;DHT22;14660;49.008;8.390;2022-11-09T17:38:46;14.60;99.90
27128;DHT22;14660;49.008;8.390;2022-11-09T17:41:17;14.60;99.90
27128;DHT22;14660;49.008;8.390;2022-11-09T17:43:53;14.60;99.90
27128;DHT22;14660;49.008;8.390;2022-11-09T17:46:22;14.60;99.90
27128;DHT22;14660;49.008;8.390;2022-11-09T17:48:48;14.60;99.90
27128;DHT22;14660;49.008;8.390;2022-11-09T17:51:18;14.60;99.90
27128;DHT22;14660;49.008;8.390;2022-11-09T17:53:44;14.60;99.90